Terminal Aerodrome Forecast
Issued by NWS

Home | Current Version | Previous Version | Text Only | Print | Product List | Glossary On
Versions: 1 2 3 4 5 6 7 8 9 10 11 12 13 14 15 16 17 18 19
585
FTUS42 KGSP 211131
TAFGMU
TAF
KGMU 211131Z 2112/2212 01004KT 1SM BR VCSH OVC003
      TEMPO 2112/2116 1/4SM FG VV001
     FM211700 05004KT 1 1/2SM -SHRA BR OVC003
     FM211900 04005KT 2SM -SHRA BR OVC003
     FM220000 05006KT 3SM -SHRA BR OVC003
     FM220500 08003KT 1SM SHRA BR VCTS OVC003CB=

USA.gov is the U.S. government's official web portal to all federal, state and local government web resources and services.